sensor_id;sensor_type;location;lat;lon;timestamp;P1;durP1;ratioP1;P2;durP2;ratioP2
51499;SDS011;39101;53.478;6.158;2022-08-03T00:00:39;12.27;;;5.10;;
51499;SDS011;39101;53.478;6.158;2022-08-03T00:03:05;9.63;;;4.25;;
51499;SDS011;39101;53.478;6.158;2022-08-03T00:05:31;9.25;;;4.93;;
51499;SDS011;39101;53.478;6.158;2022-08-03T00:07:58;13.30;;;5.75;;
51499;SDS011;39101;53.478;6.158;2022-08-03T00:10:25;11.82;;;5.10;;
51499;SDS011;39101;53.478;6.158;2022-08-03T00:12:51;8.43;;;4.78;;
51499;SDS011;39101;53.478;6.158;2022-08-03T00:15:17;9.57;;;4.85;;
51499;SDS011;39101;53.478;6.158;2022-08-03T00:17:49;12.00;;;5.28;;
51499;SDS011;39101;53.478;6.158;2022-08-03T00:20:14;11.75;;;5.32;;
51499;SDS011;39101;53.478;6.158;2022-08-03T00:22:40;11.85;;;4.50;;
51499;SDS011;39101;53.478;6.158;2022-08-03T00:25:06;11.02;;;4.72;;
51499;SDS011;39101;53.478;6.158;2022-08-03T00:27:33;11.45;;;4.88;;
51499;SDS011;39101;53.478;6.158;2022-08-03T00:29:58;11.38;;;4.63;;
51499;SDS011;39101;53.478;6.158;2022-08-03T00:32:24;12.65;;;5.78;;
51499;SDS011;39101;53.478;6.158;2022-08-03T00:34:50;10.38;;;4.68;;
51499;SDS011;39101;53.478;6.158;2022-08-03T00:37:15;10.27;;;5.00;;
51499;SDS011;39101;53.478;6.158;2022-08-03T00:39:41;12.13;;;5.55;;
51499;SDS011;39101;53.478;6.158;2022-08-03T00:42:10;10.98;;;4.50;;
51499;SDS011;39101;53.478;6.158;2022-08-03T00:44:40;12.43;;;4.95;;
51499;SDS011;39101;53.478;6.158;2022-08-03T00:47:08;8.98;;;4.53;;
51499;SDS011;39101;53.478;6.158;2022-08-03T00:49:35;9.05;;;3.83;;
51499;SDS011;39101;53.478;6.158;2022-08-03T00:52:02;13.43;;;4.95;;
51499;SDS011;39101;53.478;6.158;2022-08-03T00:54:36;9.85;;;4.95;;
51499;SDS011;39101;53.478;6.158;2022-08-03T00:57:04;11.38;;;4.30;;
51499;SDS011;39101;53.478;6.158;2022-08-03T00:59:30;10.63;;;4.47;;
51499;SDS011;39101;53.478;6.158;2022-08-03T01:01:56;12.95;;;5.55;;
51499;SDS011;39101;53.478;6.158;2022-08-03T01:04:23;8.32;;;4.20;;
51499;SDS011;39101;53.478;6.158;2022-08-03T01:06:51;12.05;;;4.60;;
51499;SDS011;39101;53.478;6.158;2022-08-03T01:12:07;9.80;;;4.40;;
51499;SDS011;39101;53.478;6.158;2022-08-03T01:20:07;13.23;;;4.18;;
51499;SDS011;39101;53.478;6.158;2022-08-03T01:31:18;11.35;;;4.70;;
51499;SDS011;39101;53.478;6.158;2022-08-03T01:33:51;8.88;;;4.18;;
51499;SDS011;39101;53.478;6.158;2022-08-03T01:36:23;14.65;;;5.00;;
51499;SDS011;39101;53.478;6.158;2022-08-03T01:38:57;11.85;;;4.80;;
51499;SDS011;39101;53.478;6.158;2022-08-03T01:41:33;15.82;;;5.45;;
51499;SDS011;39101;53.478;6.158;2022-08-03T01:44:03;13.25;;;4.43;;
51499;SDS011;39101;53.478;6.158;2022-08-03T01:46:33;10.25;;;5.00;;
51499;SDS011;39101;53.478;6.158;2022-08-03T01:49:01;13.02;;;5.15;;
51499;SDS011;39101;53.478;6.158;2022-08-03T01:51:28;12.68;;;5.85;;
51499;SDS011;39101;53.478;6.158;2022-08-03T01:53:56;9.52;;;4.95;;
51499;SDS011;39101;53.478;6.158;2022-08-03T01:56:25;12.05;;;4.75;;
51499;SDS011;39101;53.478;6.158;2022-08-03T01:58:54;8.97;;;5.03;;
51499;SDS011;39101;53.478;6.158;2022-08-03T02:01:24;8.02;;;5.43;;
51499;SDS011;39101;53.478;6.158;2022-08-03T02:03:52;11.00;;;4.57;;
51499;SDS011;39101;53.478;6.158;2022-08-03T02:06:21;10.15;;;4.97;;
51499;SDS011;39101;53.478;6.158;2022-08-03T02:08:48;9.65;;;5.10;;
51499;SDS011;39101;53.478;6.158;2022-08-03T02:11:16;12.30;;;5.03;;
51499;SDS011;39101;53.478;6.158;2022-08-03T02:13:42;11.38;;;5.05;;
51499;SDS011;39101;53.478;6.158;2022-08-03T02:16:11;15.88;;;5.55;;
51499;SDS011;39101;53.478;6.158;2022-08-03T02:18:39;10.95;;;4.72;;
51499;SDS011;39101;53.478;6.158;2022-08-03T02:21:05;10.52;;;5.13;;
51499;SDS011;39101;53.478;6.158;2022-08-03T02:23:34;8.33;;;4.80;;
51499;SDS011;39101;53.478;6.158;2022-08-03T02:26:03;15.23;;;5.13;;
51499;SDS011;39101;53.478;6.158;2022-08-03T02:28:34;14.23;;;4.60;;
51499;SDS011;39101;53.478;6.158;2022-08-03T02:31:03;11.98;;;4.82;;
51499;SDS011;39101;53.478;6.158;2022-08-03T02:33:36;13.68;;;5.10;;
51499;SDS011;39101;53.478;6.158;2022-08-03T02:36:05;10.13;;;4.38;;
51499;SDS011;39101;53.478;6.158;2022-08-03T02:38:35;11.35;;;5.15;;
51499;SDS011;39101;53.478;6.158;2022-08-03T02:41:14;12.68;;;5.20;;
51499;SDS011;39101;53.478;6.158;2022-08-03T02:43:47;10.82;;;4.88;;
51499;SDS011;39101;53.478;6.158;2022-08-03T02:46:18;11.63;;;5.07;;
51499;SDS011;39101;53.478;6.158;2022-08-03T02:48:46;10.18;;;5.22;;
51499;SDS011;39101;53.478;6.158;2022-08-03T02:51:14;12.02;;;4.63;;
51499;SDS011;39101;53.478;6.158;2022-08-03T02:53:44;10.10;;;4.45;;
51499;SDS011;39101;53.478;6.158;2022-08-03T02:56:11;9.45;;;4.85;;
51499;SDS011;39101;53.478;6.158;2022-08-03T02:58:39;9.10;;;3.75;;
51499;SDS011;39101;53.478;6.158;2022-08-03T03:01:07;9.45;;;4.40;;
51499;SDS011;39101;53.478;6.158;2022-08-03T03:03:34;8.30;;;4.72;;
51499;SDS011;39101;53.478;6.158;2022-08-03T03:06:01;8.30;;;4.00;;
51499;SDS011;39101;53.478;6.158;2022-08-03T03:08:27;11.35;;;4.45;;
51499;SDS011;39101;53.478;6.158;2022-08-03T03:10:54;10.63;;;4.30;;
51499;SDS011;39101;53.478;6.158;2022-08-03T03:13:23;12.77;;;5.68;;
51499;SDS011;39101;53.478;6.158;2022-08-03T03:15:51;9.23;;;4.53;;
51499;SDS011;39101;53.478;6.158;2022-08-03T03:18:21;9.05;;;4.13;;
51499;SDS011;39101;53.478;6.158;2022-08-03T03:20:48;13.75;;;5.50;;
51499;SDS011;39101;53.478;6.158;2022-08-03T03:23:15;9.45;;;4.15;;
51499;SDS011;39101;53.478;6.158;2022-08-03T03:25:42;10.27;;;4.88;;
51499;SDS011;39101;53.478;6.158;2022-08-03T03:28:08;11.27;;;4.72;;
51499;SDS011;39101;53.478;6.158;2022-08-03T03:30:35;10.75;;;5.07;;
51499;SDS011;39101;53.478;6.158;2022-08-03T03:33:01;11.27;;;4.57;;
51499;SDS011;39101;53.478;6.158;2022-08-03T03:35:27;11.98;;;4.82;;
51499;SDS011;39101;53.478;6.158;2022-08-03T03:37:52;14.52;;;5.10;;
51499;SDS011;39101;53.478;6.158;2022-08-03T03:40:19;8.63;;;4.65;;
51499;SDS011;39101;53.478;6.158;2022-08-03T03:42:45;11.27;;;5.53;;
51499;SDS011;39101;53.478;6.158;2022-08-03T03:45:11;11.23;;;4.82;;
51499;SDS011;39101;53.478;6.158;2022-08-03T03:47:37;9.88;;;4.82;;
51499;SDS011;39101;53.478;6.158;2022-08-03T03:50:03;12.60;;;4.57;;
51499;SDS011;39101;53.478;6.158;2022-08-03T03:52:32;11.10;;;4.78;;
51499;SDS011;39101;53.478;6.158;2022-08-03T03:54:58;15.23;;;4.75;;
51499;SDS011;39101;53.478;6.158;2022-08-03T03:57:23;12.38;;;4.65;;
51499;SDS011;39101;53.478;6.158;2022-08-03T03:59:50;12.02;;;5.18;;
51499;SDS011;39101;53.478;6.158;2022-08-03T04:02:16;10.65;;;4.45;;
51499;SDS011;39101;53.478;6.158;2022-08-03T04:04:41;12.80;;;4.78;;
51499;SDS011;39101;53.478;6.158;2022-08-03T04:07:26;11.20;;;4.40;;
51499;SDS011;39101;53.478;6.158;2022-08-03T04:10:17;9.05;;;4.25;;
51499;SDS011;39101;53.478;6.158;2022-08-03T04:13:06;11.63;;;4.30;;
51499;SDS011;39101;53.478;6.158;2022-08-03T04:15:34;14.45;;;4.65;;
51499;SDS011;39101;53.478;6.158;2022-08-03T04:18:03;11.00;;;4.07;;
51499;SDS011;39101;53.478;6.158;2022-08-03T04:20:34;8.48;;;3.88;;
51499;SDS011;39101;53.478;6.158;2022-08-03T04:23:02;10.60;;;4.50;;
51499;SDS011;39101;53.478;6.158;2022-08-03T04:25:29;15.32;;;4.82;;
51499;SDS011;39101;53.478;6.158;2022-08-03T04:27:58;10.40;;;4.10;;
51499;SDS011;39101;53.478;6.158;2022-08-03T04:30:26;12.40;;;4.68;;
51499;SDS011;39101;53.478;6.158;2022-08-03T04:32:58;11.73;;;4.25;;
51499;SDS011;39101;53.478;6.158;2022-08-03T04:35:27;14.10;;;5.60;;
51499;SDS011;39101;53.478;6.158;2022-08-03T04:37:56;13.48;;;5.35;;
51499;SDS011;39101;53.478;6.158;2022-08-03T04:40:43;13.32;;;4.03;;
51499;SDS011;39101;53.478;6.158;2022-08-03T04:43:12;12.63;;;3.97;;
51499;SDS011;39101;53.478;6.158;2022-08-03T04:45:40;14.65;;;4.30;;
51499;SDS011;39101;53.478;6.158;2022-08-03T04:48:07;10.30;;;4.20;;
51499;SDS011;39101;53.478;6.158;2022-08-03T04:50:35;8.75;;;3.33;;
51499;SDS011;39101;53.478;6.158;2022-08-03T04:53:01;11.77;;;3.95;;
51499;SDS011;39101;53.478;6.158;2022-08-03T04:55:31;8.98;;;3.65;;
51499;SDS011;39101;53.478;6.158;2022-08-03T04:57:58;10.80;;;4.13;;
51499;SDS011;39101;53.478;6.158;2022-08-03T05:00:26;9.25;;;3.85;;
51499;SDS011;39101;53.478;6.158;2022-08-03T05:02:54;11.38;;;4.10;;
51499;SDS011;39101;53.478;6.158;2022-08-03T05:05:20;16.05;;;3.92;;
51499;SDS011;39101;53.478;6.158;2022-08-03T05:07:48;14.35;;;4.53;;
51499;SDS011;39101;53.478;6.158;2022-08-03T05:10:16;9.93;;;3.70;;
51499;SDS011;39101;53.478;6.158;2022-08-03T05:12:43;9.25;;;4.13;;
51499;SDS011;39101;53.478;6.158;2022-08-03T05:15:10;13.25;;;4.50;;
51499;SDS011;39101;53.478;6.158;2022-08-03T05:17:36;13.55;;;4.13;;
51499;SDS011;39101;53.478;6.158;2022-08-03T05:20:02;8.25;;;4.43;;
51499;SDS011;39101;53.478;6.158;2022-08-03T05:22:29;12.55;;;4.10;;
51499;SDS011;39101;53.478;6.158;2022-08-03T05:24:54;13.98;;;4.28;;
51499;SDS011;39101;53.478;6.158;2022-08-03T05:27:20;8.02;;;4.22;;
51499;SDS011;39101;53.478;6.158;2022-08-03T05:29:46;10.90;;;4.13;;
51499;SDS011;39101;53.478;6.158;2022-08-03T05:32:15;10.13;;;3.72;;
51499;SDS011;39101;53.478;6.158;2022-08-03T05:34:43;10.25;;;4.00;;
51499;SDS011;39101;53.478;6.158;2022-08-03T05:37:09;10.57;;;3.50;;
51499;SDS011;39101;53.478;6.158;2022-08-03T05:39:41;12.25;;;3.95;;
51499;SDS011;39101;53.478;6.158;2022-08-03T05:42:07;10.88;;;3.60;;
51499;SDS011;39101;53.478;6.158;2022-08-03T05:44:33;14.02;;;4.10;;
51499;SDS011;39101;53.478;6.158;2022-08-03T05:46:58;11.35;;;4.05;;
51499;SDS011;39101;53.478;6.158;2022-08-03T05:49:24;12.13;;;4.20;;
51499;SDS011;39101;53.478;6.158;2022-08-03T05:51:50;12.38;;;5.32;;
51499;SDS011;39101;53.478;6.158;2022-08-03T05:54:15;14.10;;;4.22;;
51499;SDS011;39101;53.478;6.158;2022-08-03T05:56:41;15.98;;;5.00;;
51499;SDS011;39101;53.478;6.158;2022-08-03T05:59:07;15.32;;;4.32;;
51499;SDS011;39101;53.478;6.158;2022-08-03T06:01:32;12.75;;;5.18;;
51499;SDS011;39101;53.478;6.158;2022-08-03T06:03:58;12.18;;;4.97;;
51499;SDS011;39101;53.478;6.158;2022-08-03T06:06:24;10.20;;;4.53;;
51499;SDS011;39101;53.478;6.158;2022-08-03T06:08:49;17.75;;;6.15;;
51499;SDS011;39101;53.478;6.158;2022-08-03T06:11:15;11.75;;;4.18;;
51499;SDS011;39101;53.478;6.158;2022-08-03T06:13:41;9.60;;;4.45;;
51499;SDS011;39101;53.478;6.158;2022-08-03T06:16:07;10.40;;;4.03;;
51499;SDS011;39101;53.478;6.158;2022-08-03T06:18:33;11.80;;;4.55;;
51499;SDS011;39101;53.478;6.158;2022-08-03T06:21:00;12.40;;;5.07;;
51499;SDS011;39101;53.478;6.158;2022-08-03T06:23:25;13.65;;;4.95;;
51499;SDS011;39101;53.478;6.158;2022-08-03T06:25:51;12.13;;;4.13;;
51499;SDS011;39101;53.478;6.158;2022-08-03T06:28:17;18.52;;;5.43;;
51499;SDS011;39101;53.478;6.158;2022-08-03T06:30:43;14.18;;;4.38;;
51499;SDS011;39101;53.478;6.158;2022-08-03T06:33:09;10.98;;;4.53;;
51499;SDS011;39101;53.478;6.158;2022-08-03T06:35:35;17.33;;;5.65;;
51499;SDS011;39101;53.478;6.158;2022-08-03T06:38:02;23.52;;;6.53;;
51499;SDS011;39101;53.478;6.158;2022-08-03T06:40:27;15.13;;;5.72;;
51499;SDS011;39101;53.478;6.158;2022-08-03T06:42:59;11.57;;;4.57;;
51499;SDS011;39101;53.478;6.158;2022-08-03T06:45:27;18.13;;;4.85;;
51499;SDS011;39101;53.478;6.158;2022-08-03T06:48:00;9.85;;;4.60;;
51499;SDS011;39101;53.478;6.158;2022-08-03T06:53:44;14.50;;;4.72;;
51499;SDS011;39101;53.478;6.158;2022-08-03T06:56:10;13.45;;;5.10;;
51499;SDS011;39101;53.478;6.158;2022-08-03T06:58:36;18.55;;;6.10;;
51499;SDS011;39101;53.478;6.158;2022-08-03T07:01:01;11.98;;;4.38;;
51499;SDS011;39101;53.478;6.158;2022-08-03T07:03:27;13.63;;;5.85;;
51499;SDS011;39101;53.478;6.158;2022-08-03T07:05:53;13.15;;;4.28;;
51499;SDS011;39101;53.478;6.158;2022-08-03T07:08:20;14.20;;;5.15;;
51499;SDS011;39101;53.478;6.158;2022-08-03T07:10:49;12.40;;;4.68;;
51499;SDS011;39101;53.478;6.158;2022-08-03T07:13:14;12.90;;;4.80;;
51499;SDS011;39101;53.478;6.158;2022-08-03T07:15:40;13.05;;;5.50;;
51499;SDS011;39101;53.478;6.158;2022-08-03T07:18:07;12.73;;;5.15;;
51499;SDS011;39101;53.478;6.158;2022-08-03T07:20:35;19.33;;;5.53;;
51499;SDS011;39101;53.478;6.158;2022-08-03T07:23:02;17.10;;;5.03;;
51499;SDS011;39101;53.478;6.158;2022-08-03T07:25:28;15.98;;;5.03;;
51499;SDS011;39101;53.478;6.158;2022-08-03T07:27:55;13.02;;;5.75;;
51499;SDS011;39101;53.478;6.158;2022-08-03T07:30:20;14.48;;;5.15;;
51499;SDS011;39101;53.478;6.158;2022-08-03T07:32:48;14.25;;;4.88;;
51499;SDS011;39101;53.478;6.158;2022-08-03T07:35:13;15.98;;;5.05;;
51499;SDS011;39101;53.478;6.158;2022-08-03T07:37:39;16.85;;;5.55;;
51499;SDS011;39101;53.478;6.158;2022-08-03T07:40:05;16.55;;;4.80;;
51499;SDS011;39101;53.478;6.158;2022-08-03T07:42:31;13.27;;;5.15;;
51499;SDS011;39101;53.478;6.158;2022-08-03T07:44:57;19.58;;;5.97;;
51499;SDS011;39101;53.478;6.158;2022-08-03T07:47:25;17.98;;;6.10;;
51499;SDS011;39101;53.478;6.158;2022-08-03T07:52:19;20.25;;;5.85;;
51499;SDS011;39101;53.478;6.158;2022-08-03T07:55:07;17.38;;;5.07;;
51499;SDS011;39101;53.478;6.158;2022-08-03T07:57:34;19.40;;;5.00;;
51499;SDS011;39101;53.478;6.158;2022-08-03T07:59:59;18.30;;;5.57;;
51499;SDS011;39101;53.478;6.158;2022-08-03T08:02:25;19.60;;;5.38;;
51499;SDS011;39101;53.478;6.158;2022-08-03T08:04:51;14.23;;;5.53;;
51499;SDS011;39101;53.478;6.158;2022-08-03T08:07:17;14.30;;;5.13;;
51499;SDS011;39101;53.478;6.158;2022-08-03T08:09:43;13.27;;;5.00;;
51499;SDS011;39101;53.478;6.158;2022-08-03T08:12:08;14.30;;;5.60;;
51499;SDS011;39101;53.478;6.158;2022-08-03T08:14:37;15.17;;;7.00;;
51499;SDS011;39101;53.478;6.158;2022-08-03T08:17:03;18.75;;;6.95;;
51499;SDS011;39101;53.478;6.158;2022-08-03T08:22:19;16.70;;;5.05;;
51499;SDS011;39101;53.478;6.158;2022-08-03T08:24:45;16.15;;;5.72;;
51499;SDS011;39101;53.478;6.158;2022-08-03T08:27:13;16.30;;;5.22;;
51499;SDS011;39101;53.478;6.158;2022-08-03T08:29:39;16.95;;;5.93;;
51499;SDS011;39101;53.478;6.158;2022-08-03T08:32:05;18.42;;;5.82;;
51499;SDS011;39101;53.478;6.158;2022-08-03T08:34:31;15.75;;;5.60;;
51499;SDS011;39101;53.478;6.158;2022-08-03T08:36:56;14.35;;;7.50;;
51499;SDS011;39101;53.478;6.158;2022-08-03T08:45:46;20.98;;;6.57;;
51499;SDS011;39101;53.478;6.158;2022-08-03T08:48:13;16.27;;;6.47;;
51499;SDS011;39101;53.478;6.158;2022-08-03T08:50:42;21.13;;;7.18;;
51499;SDS011;39101;53.478;6.158;2022-08-03T08:53:09;20.27;;;6.78;;
51499;SDS011;39101;53.478;6.158;2022-08-03T08:55:37;18.80;;;6.20;;
51499;SDS011;39101;53.478;6.158;2022-08-03T08:58:04;18.85;;;6.40;;
51499;SDS011;39101;53.478;6.158;2022-08-03T09:00:32;19.23;;;6.78;;
51499;SDS011;39101;53.478;6.158;2022-08-03T09:02:58;14.45;;;6.78;;
51499;SDS011;39101;53.478;6.158;2022-08-03T09:05:25;18.58;;;6.47;;
51499;SDS011;39101;53.478;6.158;2022-08-03T09:07:51;18.35;;;6.13;;
51499;SDS011;39101;53.478;6.158;2022-08-03T09:10:17;19.98;;;6.50;;
51499;SDS011;39101;53.478;6.158;2022-08-03T09:12:48;16.30;;;6.05;;
51499;SDS011;39101;53.478;6.158;2022-08-03T09:15:16;17.92;;;6.18;;
51499;SDS011;39101;53.478;6.158;2022-08-03T09:20:12;18.27;;;6.68;;
51499;SDS011;39101;53.478;6.158;2022-08-03T09:25:40;18.55;;;6.20;;
51499;SDS011;39101;53.478;6.158;2022-08-03T09:28:11;19.60;;;6.10;;
51499;SDS011;39101;53.478;6.158;2022-08-03T09:30:39;20.63;;;6.32;;
51499;SDS011;39101;53.478;6.158;2022-08-03T09:33:08;19.27;;;6.32;;
51499;SDS011;39101;53.478;6.158;2022-08-03T09:35:43;19.90;;;7.07;;
51499;SDS011;39101;53.478;6.158;2022-08-03T09:38:12;17.83;;;6.38;;
51499;SDS011;39101;53.478;6.158;2022-08-03T09:40:39;21.55;;;6.43;;
51499;SDS011;39101;53.478;6.158;2022-08-03T09:43:05;21.05;;;7.68;;
51499;SDS011;39101;53.478;6.158;2022-08-03T09:45:37;20.65;;;6.85;;
51499;SDS011;39101;53.478;6.158;2022-08-03T09:50:50;19.42;;;7.32;;
51499;SDS011;39101;53.478;6.158;2022-08-03T09:53:23;22.90;;;7.15;;
51499;SDS011;39101;53.478;6.158;2022-08-03T09:55:56;17.40;;;7.20;;
51499;SDS011;39101;53.478;6.158;2022-08-03T09:58:27;18.30;;;7.38;;
51499;SDS011;39101;53.478;6.158;2022-08-03T10:03:32;19.98;;;7.47;;
51499;SDS011;39101;53.478;6.158;2022-08-03T10:06:21;21.60;;;7.95;;
51499;SDS011;39101;53.478;6.158;2022-08-03T10:11:36;22.70;;;7.88;;
51499;SDS011;39101;53.478;6.158;2022-08-03T10:14:03;19.60;;;7.63;;
51499;SDS011;39101;53.478;6.158;2022-08-03T10:16:34;16.90;;;8.02;;
51499;SDS011;39101;53.478;6.158;2022-08-03T10:19:03;12.23;;;7.07;;
51499;SDS011;39101;53.478;6.158;2022-08-03T10:22:33;20.13;;;8.80;;
51499;SDS011;39101;53.478;6.158;2022-08-03T10:25:08;17.50;;;7.75;;
51499;SDS011;39101;53.478;6.158;2022-08-03T10:27:40;20.58;;;8.32;;
51499;SDS011;39101;53.478;6.158;2022-08-03T10:30:15;19.52;;;8.15;;
51499;SDS011;39101;53.478;6.158;2022-08-03T10:35:25;20.80;;;8.07;;
51499;SDS011;39101;53.478;6.158;2022-08-03T10:40:31;20.45;;;9.02;;
51499;SDS011;39101;53.478;6.158;2022-08-03T10:43:02;20.63;;;8.73;;
51499;SDS011;39101;53.478;6.158;2022-08-03T10:45:35;25.77;;;11.20;;
51499;SDS011;39101;53.478;6.158;2022-08-03T10:48:06;17.92;;;9.80;;
51499;SDS011;39101;53.478;6.158;2022-08-03T10:50:34;24.17;;;11.20;;
51499;SDS011;39101;53.478;6.158;2022-08-03T10:53:03;20.42;;;10.27;;
51499;SDS011;39101;53.478;6.158;2022-08-03T10:55:44;20.77;;;11.38;;
51499;SDS011;39101;53.478;6.158;2022-08-03T11:01:04;21.02;;;11.23;;
51499;SDS011;39101;53.478;6.158;2022-08-03T11:03:33;20.67;;;11.35;;
51499;SDS011;39101;53.478;6.158;2022-08-03T11:06:24;19.00;;;10.63;;
51499;SDS011;39101;53.478;6.158;2022-08-03T11:11:37;26.83;;;11.45;;
51499;SDS011;39101;53.478;6.158;2022-08-03T11:14:11;23.70;;;7.78;;
51499;SDS011;39101;53.478;6.158;2022-08-03T11:16:40;31.48;;;8.73;;
51499;SDS011;39101;53.478;6.158;2022-08-03T11:19:12;28.63;;;7.82;;
51499;SDS011;39101;53.478;6.158;2022-08-03T11:35:10;23.48;;;8.77;;
51499;SDS011;39101;53.478;6.158;2022-08-03T11:40:35;27.85;;;8.02;;
51499;SDS011;39101;53.478;6.158;2022-08-03T11:46:09;24.38;;;8.02;;
51499;SDS011;39101;53.478;6.158;2022-08-03T11:48:42;27.58;;;8.00;;
51499;SDS011;39101;53.478;6.158;2022-08-03T11:51:20;20.98;;;7.90;;
51499;SDS011;39101;53.478;6.158;2022-08-03T11:53:50;21.05;;;8.27;;
51499;SDS011;39101;53.478;6.158;2022-08-03T11:56:23;31.33;;;7.82;;
51499;SDS011;39101;53.478;6.158;2022-08-03T11:58:50;26.92;;;7.78;;
51499;SDS011;39101;53.478;6.158;2022-08-03T12:01:18;27.17;;;8.15;;
51499;SDS011;39101;53.478;6.158;2022-08-03T12:03:47;24.73;;;7.38;;
51499;SDS011;39101;53.478;6.158;2022-08-03T12:06:19;25.48;;;7.40;;
51499;SDS011;39101;53.478;6.158;2022-08-03T12:08:45;23.13;;;7.18;;
51499;SDS011;39101;53.478;6.158;2022-08-03T12:11:13;24.80;;;8.85;;
51499;SDS011;39101;53.478;6.158;2022-08-03T12:13:47;24.10;;;7.65;;
51499;SDS011;39101;53.478;6.158;2022-08-03T12:18:57;25.30;;;8.38;;
51499;SDS011;39101;53.478;6.158;2022-08-03T12:21:29;31.88;;;8.55;;
51499;SDS011;39101;53.478;6.158;2022-08-03T12:23:56;24.92;;;7.75;;
51499;SDS011;39101;53.478;6.158;2022-08-03T12:26:27;27.60;;;6.28;;
51499;SDS011;39101;53.478;6.158;2022-08-03T12:28:53;22.65;;;6.68;;
51499;SDS011;39101;53.478;6.158;2022-08-03T12:31:20;21.88;;;6.55;;
51499;SDS011;39101;53.478;6.158;2022-08-03T12:33:55;23.17;;;6.47;;
51499;SDS011;39101;53.478;6.158;2022-08-03T12:36:23;17.10;;;5.95;;
51499;SDS011;39101;53.478;6.158;2022-08-03T12:38:58;31.33;;;7.15;;
51499;SDS011;39101;53.478;6.158;2022-08-03T12:41:36;21.55;;;6.63;;
51499;SDS011;39101;53.478;6.158;2022-08-03T12:44:05;23.45;;;5.70;;
51499;SDS011;39101;53.478;6.158;2022-08-03T12:51:25;21.92;;;6.53;;
51499;SDS011;39101;53.478;6.158;2022-08-03T12:53:53;21.98;;;6.70;;
51499;SDS011;39101;53.478;6.158;2022-08-03T12:56:20;17.15;;;5.38;;
51499;SDS011;39101;53.478;6.158;2022-08-03T12:58:46;17.40;;;6.05;;
51499;SDS011;39101;53.478;6.158;2022-08-03T13:01:13;25.35;;;5.85;;
51499;SDS011;39101;53.478;6.158;2022-08-03T13:03:42;18.85;;;5.38;;
51499;SDS011;39101;53.478;6.158;2022-08-03T13:06:30;20.52;;;5.57;;
51499;SDS011;39101;53.478;6.158;2022-08-03T13:09:03;25.75;;;6.53;;
51499;SDS011;39101;53.478;6.158;2022-08-03T13:12:10;20.52;;;5.40;;
51499;SDS011;39101;53.478;6.158;2022-08-03T13:14:37;18.77;;;5.60;;
51499;SDS011;39101;53.478;6.158;2022-08-03T13:17:04;22.08;;;5.30;;
51499;SDS011;39101;53.478;6.158;2022-08-03T13:19:31;18.35;;;5.20;;
51499;SDS011;39101;53.478;6.158;2022-08-03T13:22:09;17.65;;;5.53;;
51499;SDS011;39101;53.478;6.158;2022-08-03T13:24:40;14.55;;;5.18;;
51499;SDS011;39101;53.478;6.158;2022-08-03T13:27:06;17.15;;;5.68;;
51499;SDS011;39101;53.478;6.158;2022-08-03T13:29:32;26.25;;;5.47;;
51499;SDS011;39101;53.478;6.158;2022-08-03T13:31:59;19.85;;;5.80;;
51499;SDS011;39101;53.478;6.158;2022-08-03T13:34:28;17.13;;;5.40;;
51499;SDS011;39101;53.478;6.158;2022-08-03T13:36:54;16.52;;;5.35;;
51499;SDS011;39101;53.478;6.158;2022-08-03T13:39:19;19.27;;;4.78;;
51499;SDS011;39101;53.478;6.158;2022-08-03T13:41:45;19.02;;;4.88;;
51499;SDS011;39101;53.478;6.158;2022-08-03T13:44:11;17.40;;;4.97;;
51499;SDS011;39101;53.478;6.158;2022-08-03T13:46:37;14.98;;;4.95;;
51499;SDS011;39101;53.478;6.158;2022-08-03T13:49:05;14.60;;;4.53;;
51499;SDS011;39101;53.478;6.158;2022-08-03T13:51:32;19.23;;;6.32;;
51499;SDS011;39101;53.478;6.158;2022-08-03T13:53:58;16.38;;;4.78;;
51499;SDS011;39101;53.478;6.158;2022-08-03T13:56:27;18.02;;;5.20;;
51499;SDS011;39101;53.478;6.158;2022-08-03T13:59:16;20.65;;;5.10;;
51499;SDS011;39101;53.478;6.158;2022-08-03T14:01:44;13.77;;;5.60;;
51499;SDS011;39101;53.478;6.158;2022-08-03T14:04:10;22.17;;;5.18;;
51499;SDS011;39101;53.478;6.158;2022-08-03T14:06:37;18.67;;;5.72;;
51499;SDS011;39101;53.478;6.158;2022-08-03T14:12:01;17.60;;;5.57;;
51499;SDS011;39101;53.478;6.158;2022-08-03T14:14:27;18.83;;;6.82;;
51499;SDS011;39101;53.478;6.158;2022-08-03T14:16:53;20.23;;;6.22;;
51499;SDS011;39101;53.478;6.158;2022-08-03T14:19:19;17.85;;;6.10;;
51499;SDS011;39101;53.478;6.158;2022-08-03T14:21:44;15.23;;;5.15;;
51499;SDS011;39101;53.478;6.158;2022-08-03T14:24:13;18.92;;;5.97;;
51499;SDS011;39101;53.478;6.158;2022-08-03T14:26:39;20.92;;;5.95;;
51499;SDS011;39101;53.478;6.158;2022-08-03T14:29:05;17.73;;;4.82;;
51499;SDS011;39101;53.478;6.158;2022-08-03T14:34:53;18.30;;;4.78;;
51499;SDS011;39101;53.478;6.158;2022-08-03T14:37:19;15.85;;;5.25;;
51499;SDS011;39101;53.478;6.158;2022-08-03T14:39:45;17.60;;;5.47;;
51499;SDS011;39101;53.478;6.158;2022-08-03T14:42:12;18.02;;;4.97;;
51499;SDS011;39101;53.478;6.158;2022-08-03T14:44:56;24.30;;;5.57;;
51499;SDS011;39101;53.478;6.158;2022-08-03T14:47:22;17.92;;;5.20;;
51499;SDS011;39101;53.478;6.158;2022-08-03T14:49:49;15.95;;;5.45;;
51499;SDS011;39101;53.478;6.158;2022-08-03T14:52:15;15.18;;;5.90;;
51499;SDS011;39101;53.478;6.158;2022-08-03T14:54:42;17.40;;;5.18;;
51499;SDS011;39101;53.478;6.158;2022-08-03T15:00:50;20.63;;;5.43;;
51499;SDS011;39101;53.478;6.158;2022-08-03T15:03:18;17.90;;;5.32;;
51499;SDS011;39101;53.478;6.158;2022-08-03T15:05:48;16.33;;;5.15;;
51499;SDS011;39101;53.478;6.158;2022-08-03T15:08:14;15.98;;;5.10;;
51499;SDS011;39101;53.478;6.158;2022-08-03T15:10:40;23.70;;;6.32;;
51499;SDS011;39101;53.478;6.158;2022-08-03T15:13:06;22.05;;;5.82;;
51499;SDS011;39101;53.478;6.158;2022-08-03T15:15:32;23.77;;;6.65;;
51499;SDS011;39101;53.478;6.158;2022-08-03T15:17:57;17.88;;;6.05;;
51499;SDS011;39101;53.478;6.158;2022-08-03T15:20:24;17.70;;;5.85;;
51499;SDS011;39101;53.478;6.158;2022-08-03T15:22:50;18.38;;;5.63;;
51499;SDS011;39101;53.478;6.158;2022-08-03T15:25:16;20.45;;;5.82;;
51499;SDS011;39101;53.478;6.158;2022-08-03T15:27:43;14.48;;;5.40;;
51499;SDS011;39101;53.478;6.158;2022-08-03T15:30:09;18.77;;;6.05;;
51499;SDS011;39101;53.478;6.158;2022-08-03T15:32:36;20.13;;;6.22;;
51499;SDS011;39101;53.478;6.158;2022-08-03T15:35:01;27.30;;;7.50;;
51499;SDS011;39101;53.478;6.158;2022-08-03T15:37:27;17.45;;;6.50;;
51499;SDS011;39101;53.478;6.158;2022-08-03T15:39:54;17.50;;;6.00;;
51499;SDS011;39101;53.478;6.158;2022-08-03T15:42:20;14.30;;;4.88;;
51499;SDS011;39101;53.478;6.158;2022-08-03T15:51:23;17.90;;;5.97;;
51499;SDS011;39101;53.478;6.158;2022-08-03T15:53:49;19.77;;;5.80;;
51499;SDS011;39101;53.478;6.158;2022-08-03T15:56:15;12.07;;;4.43;;
51499;SDS011;39101;53.478;6.158;2022-08-03T15:58:40;14.88;;;4.72;;
51499;SDS011;39101;53.478;6.158;2022-08-03T16:01:06;19.42;;;4.93;;
51499;SDS011;39101;53.478;6.158;2022-08-03T16:03:32;13.75;;;5.00;;
51499;SDS011;39101;53.478;6.158;2022-08-03T16:06:05;19.88;;;4.95;;
51499;SDS011;39101;53.478;6.158;2022-08-03T16:08:31;13.30;;;4.50;;
51499;SDS011;39101;53.478;6.158;2022-08-03T16:10:59;16.92;;;5.28;;
51499;SDS011;39101;53.478;6.158;2022-08-03T16:13:26;13.32;;;4.63;;
51499;SDS011;39101;53.478;6.158;2022-08-03T16:15:52;16.02;;;4.68;;
51499;SDS011;39101;53.478;6.158;2022-08-03T16:18:18;19.23;;;4.78;;
51499;SDS011;39101;53.478;6.158;2022-08-03T16:20:45;16.95;;;5.18;;
51499;SDS011;39101;53.478;6.158;2022-08-03T16:23:11;15.48;;;4.47;;